Hlavní strana
METAR-TAF:

METAR-TAF

Letiště :

Mezinárodní letiště Oděsa

Oděsa, Ukrajina

zeměpisná šířka: 46-26N, zeměpisná délka: 030-46E, výška: 42 m

Aktuální stav počasí

Zpráva byla vytvořena před 37 minutami, v 07:00 UTC
vítr z různých směrů 2 kt
Teplota 6°C
Vlhkost vzduchu 36%
Tlak 1018 hPa
Viditelnost 10 km a více
Žádná oblačnost pod 1500 m, nevyskytují se cumulonimby.

METAR: UKOO 020700Z VRB01MPS CAVOK 06/M08 Q1018 R34/090060 NOSIG

Čas: 10:37 (07:37 UTC)

Předpověď počasí

Zpráva byla vytvořena před 2 hodinami a 34 minutami, v 05:03 UTC
Předpověď platná od 02 v 06 UTC do 03 v 06 UTC
Jižní vítr 6 kt
Viditelnost: 6000 m
Polojasno ve výšce 1000 ft
Změna
od 02 v 18 UTC do 02 v 19 UTC
Severní vítr 6 kt
Viditelnost: 2100 m
kouřmo

TAF: UKOO 020503Z 0206/0306 19003MPS 6000 SCT010 TX10/0212Z TN00/0303Z BECMG 0218/0219 36003MPS 2100 BR

Stav a předpovědi počasí z více než 4 000 letišť (zprávy METAR a TAF).

Červené a žluté tečky na mapě představují dostupné meteorologické stanice.

Když kurzor umístíte na tečku, zobrazí se název stanice.

Pak kliknutím zobrazíte stav a předpověď počasí.

Chcete-li změnit mapu, kliknutím na zelené tlačítko se znaménkem +mapu přiblížíte, kliknutím na zelené tlačítko se znaménkem – mapu oddálíte a kliknutím na zelené šipky přejdete na sousední mapy.


METAR-TAF: